createdAt,value
2023-02-06T00:01:23.821Z,14.20
2023-02-06T00:04:00.614Z,14.80
2023-02-06T00:06:36.137Z,14.30
2023-02-06T00:09:15.009Z,14.40
2023-02-06T00:11:52.950Z,15.00
2023-02-06T00:14:23.165Z,15.30
2023-02-06T00:16:56.325Z,14.80
2023-02-06T00:19:32.901Z,14.80
2023-02-06T00:22:12.905Z,14.60
2023-02-06T00:24:48.807Z,15.30
2023-02-06T00:27:20.739Z,15.40
2023-02-06T00:29:54.060Z,15.50
2023-02-06T00:32:23.846Z,14.60
2023-02-06T00:34:56.463Z,14.90
2023-02-06T00:37:30.986Z,16.30
2023-02-06T00:40:07.510Z,16.60
2023-02-06T00:42:39.635Z,15.30
2023-02-06T00:45:11.257Z,15.20
2023-02-06T00:47:46.439Z,15.50
2023-02-06T00:50:17.162Z,15.00
2023-02-06T00:52:51.748Z,15.40
2023-02-06T00:55:24.727Z,15.00
2023-02-06T00:57:59.076Z,15.00
2023-02-06T01:00:33.677Z,15.40
2023-02-06T01:03:07.224Z,16.30
2023-02-06T01:05:44.383Z,15.30
2023-02-06T01:08:14.836Z,15.20
2023-02-06T01:10:50.483Z,16.00
2023-02-06T01:13:23.885Z,16.80
2023-02-06T01:15:57.371Z,15.50
2023-02-06T01:18:31.307Z,15.60
2023-02-06T01:21:12.321Z,16.30
2023-02-06T01:23:48.373Z,17.00
2023-02-06T01:26:26.840Z,16.70
2023-02-06T01:29:01.893Z,16.40
2023-02-06T01:31:34.392Z,16.50
2023-02-06T01:34:15.013Z,16.90
2023-02-06T01:36:54.807Z,16.90
2023-02-06T01:39:33.022Z,16.70
2023-02-06T01:42:07.980Z,16.50
2023-02-06T01:44:44.365Z,16.40
2023-02-06T01:47:24.468Z,16.70
2023-02-06T01:49:58.274Z,16.80
2023-02-06T01:52:35.970Z,17.20
2023-02-06T01:55:11.724Z,17.00
2023-02-06T01:57:42.362Z,17.60
2023-02-06T02:00:20.459Z,17.10
2023-02-06T02:02:55.295Z,17.50
2023-02-06T02:05:32.429Z,17.50
2023-02-06T02:08:12.637Z,17.40
2023-02-06T02:10:48.799Z,17.00
2023-02-06T02:13:21.120Z,17.70
2023-02-06T02:16:00.256Z,17.40
2023-02-06T02:19:01.903Z,17.70
2023-02-06T02:21:58.876Z,17.60
2023-02-06T02:25:01.702Z,17.80
2023-02-06T02:27:51.693Z,18.20
2023-02-06T02:31:12.071Z,18.20
2023-02-06T02:34:19.788Z,18.20
2023-02-06T02:37:00.311Z,18.90
2023-02-06T02:39:41.331Z,18.80
2023-02-06T02:42:19.131Z,18.90
2023-02-06T02:44:59.522Z,18.60
2023-02-06T02:47:39.427Z,17.70
2023-02-06T02:50:10.462Z,18.80
2023-02-06T02:52:42.988Z,18.50
2023-02-06T02:55:23.003Z,18.50
2023-02-06T02:58:05.136Z,18.80
2023-02-06T03:00:43.355Z,18.70
2023-02-06T03:03:17.204Z,18.70
2023-02-06T03:06:09.535Z,18.10
2023-02-06T03:08:49.474Z,18.60
2023-02-06T03:11:23.653Z,18.40
2023-02-06T03:14:01.376Z,19.00
2023-02-06T03:16:42.140Z,18.60
2023-02-06T03:19:26.473Z,19.40
2023-02-06T03:22:03.282Z,19.00
2023-02-06T03:24:38.113Z,19.00
2023-02-06T03:27:15.207Z,19.10
2023-02-06T03:29:52.793Z,18.90
2023-02-06T03:32:34.421Z,18.60
2023-02-06T03:35:16.732Z,19.70
2023-02-06T03:37:59.406Z,17.80
2023-02-06T03:40:35.295Z,18.60
2023-02-06T03:43:07.264Z,18.90
2023-02-06T03:45:41.774Z,19.60
2023-02-06T03:48:19.519Z,19.10
2023-02-06T03:51:02.064Z,18.30
2023-02-06T03:53:39.279Z,18.60
2023-02-06T03:56:12.521Z,19.20
2023-02-06T03:58:50.080Z,18.40
2023-02-06T04:01:21.714Z,19.10
2023-02-06T04:04:00.859Z,18.00
2023-02-06T04:06:38.413Z,18.80
2023-02-06T04:09:10.981Z,18.50
2023-02-06T04:11:47.042Z,18.60
2023-02-06T04:14:24.631Z,18.10
2023-02-06T04:16:57.009Z,18.30
2023-02-06T04:19:29.349Z,19.40
2023-02-06T04:22:05.389Z,18.80
2023-02-06T04:24:40.891Z,18.70
2023-02-06T04:27:15.319Z,19.20
2023-02-06T04:29:53.416Z,20.10
2023-02-06T04:32:23.002Z,19.50
2023-02-06T04:34:58.123Z,19.30
2023-02-06T04:37:30.029Z,19.70
2023-02-06T04:40:00.415Z,18.60
2023-02-06T04:42:32.617Z,18.60
2023-02-06T04:45:06.423Z,19.60
2023-02-06T04:47:39.120Z,19.70
2023-02-06T04:50:11.809Z,19.50
2023-02-06T04:52:42.439Z,19.80
2023-02-06T04:55:17.380Z,18.40
2023-02-06T04:57:46.980Z,18.30
2023-02-06T05:00:18.750Z,18.50
2023-02-06T05:05:17.578Z,18.40
2023-02-06T05:07:53.975Z,20.00
2023-02-06T05:10:27.014Z,19.70
2023-02-06T05:12:58.827Z,19.60
2023-02-06T05:15:31.419Z,18.60
2023-02-06T05:18:06.538Z,20.00
2023-02-06T05:20:39.480Z,19.30
2023-02-06T05:23:09.559Z,19.80
2023-02-06T05:25:42.446Z,20.10
2023-02-06T05:28:22.795Z,19.30
2023-02-06T05:30:56.315Z,19.60
2023-02-06T05:33:31.922Z,20.10
2023-02-06T05:36:08.722Z,18.80
2023-02-06T05:38:43.609Z,19.00
2023-02-06T05:41:16.055Z,20.50
2023-02-06T05:43:48.218Z,20.90
2023-02-06T05:46:20.442Z,21.80
2023-02-06T05:48:52.643Z,21.30
2023-02-06T05:51:24.154Z,21.30
2023-02-06T05:53:56.142Z,22.20
2023-02-06T05:56:25.544Z,22.20
2023-02-06T05:58:57.911Z,20.70
2023-02-06T06:01:28.630Z,22.40
2023-02-06T06:04:01.165Z,22.90
2023-02-06T06:06:33.659Z,20.40
2023-02-06T06:09:04.232Z,21.20
2023-02-06T06:11:39.395Z,20.40
2023-02-06T06:14:12.117Z,21.20
2023-02-06T06:16:46.579Z,20.70
2023-02-06T06:19:20.906Z,19.70
2023-02-06T06:21:57.922Z,20.80
2023-02-06T06:24:31.999Z,20.20
2023-02-06T06:27:04.320Z,20.80
2023-02-06T06:29:36.661Z,19.50
2023-02-06T06:32:08.814Z,19.30
2023-02-06T06:34:38.650Z,20.10
2023-02-06T06:37:15.765Z,20.40
2023-02-06T06:39:49.797Z,19.40
2023-02-06T06:42:22.053Z,19.30
2023-02-06T06:44:52.404Z,19.50
2023-02-06T06:47:25.029Z,20.00
2023-02-06T06:49:55.704Z,19.20
2023-02-06T06:52:26.179Z,19.70
2023-02-06T06:54:56.051Z,18.40
2023-02-06T06:57:29.909Z,20.00
2023-02-06T07:00:02.078Z,19.90
2023-02-06T07:02:37.706Z,20.20
2023-02-06T07:05:12.935Z,18.80
2023-02-06T07:07:48.167Z,19.10
2023-02-06T07:10:26.984Z,18.90
2023-02-06T07:12:59.524Z,17.60
2023-02-06T07:15:29.405Z,18.20
2023-02-06T07:18:01.310Z,17.80
2023-02-06T07:20:37.470Z,18.50
2023-02-06T07:23:15.712Z,19.00
2023-02-06T07:25:49.278Z,19.90
2023-02-06T07:28:20.188Z,18.90
2023-02-06T07:30:50.715Z,17.20
2023-02-06T07:33:23.067Z,18.20
2023-02-06T07:38:24.898Z,19.00
2023-02-06T07:41:03.593Z,18.80
2023-02-06T07:43:33.846Z,18.10
2023-02-06T07:46:05.937Z,18.50
2023-02-06T07:48:41.919Z,18.10
2023-02-06T07:51:12.149Z,18.10
2023-02-06T07:53:42.478Z,17.40
2023-02-06T07:56:24.625Z,17.10
2023-02-06T07:58:56.285Z,17.30
2023-02-06T08:01:33.651Z,18.10
2023-02-06T08:04:05.801Z,18.00
2023-02-06T08:06:37.964Z,18.20
2023-02-06T08:09:12.895Z,17.20
2023-02-06T08:11:49.117Z,17.50
2023-02-06T08:14:23.847Z,17.40
2023-02-06T08:16:54.635Z,17.10
2023-02-06T08:19:30.933Z,16.90
2023-02-06T08:22:03.624Z,17.50
2023-02-06T08:24:33.682Z,17.40
2023-02-06T08:27:06.428Z,17.40
2023-02-06T08:29:41.935Z,17.60
2023-02-06T08:32:12.476Z,18.10
2023-02-06T08:34:46.728Z,17.50
2023-02-06T08:37:21.693Z,18.10
2023-02-06T08:39:56.552Z,17.40
2023-02-06T08:42:33.470Z,18.00
2023-02-06T08:45:11.322Z,18.20
2023-02-06T08:47:46.204Z,17.80
2023-02-06T08:50:18.599Z,16.90
2023-02-06T08:55:25.190Z,17.00
2023-02-06T08:57:57.552Z,17.50
2023-02-06T09:00:28.236Z,17.90
2023-02-06T09:02:57.910Z,17.30
2023-02-06T09:05:27.668Z,16.20
2023-02-06T09:08:01.546Z,17.00
2023-02-06T09:10:30.947Z,17.00
2023-02-06T09:13:00.548Z,18.30
2023-02-06T09:15:37.937Z,17.10
2023-02-06T09:18:13.422Z,17.20
2023-02-06T09:20:50.405Z,16.60
2023-02-06T09:23:24.776Z,17.50
2023-02-06T09:25:56.569Z,16.80
2023-02-06T09:28:28.532Z,15.90
2023-02-06T09:31:08.551Z,16.40
2023-02-06T09:33:41.696Z,17.20
2023-02-06T09:36:18.646Z,16.40
2023-02-06T09:38:53.475Z,18.00
2023-02-06T09:41:32.500Z,16.50
2023-02-06T09:44:17.119Z,17.20
2023-02-06T09:46:55.240Z,16.80
2023-02-06T09:49:34.615Z,17.00
2023-02-06T09:52:47.265Z,16.00
2023-02-06T09:55:30.393Z,15.80
2023-02-06T09:58:15.326Z,15.70
2023-02-06T10:00:50.766Z,16.40
2023-02-06T10:03:56.796Z,16.40
2023-02-06T10:06:39.096Z,15.30
2023-02-06T10:09:17.307Z,14.90
2023-02-06T10:11:52.207Z,16.40
2023-02-06T10:14:28.697Z,15.90
2023-02-06T10:17:04.716Z,17.30
2023-02-06T10:19:46.190Z,17.00
2023-02-06T10:22:26.961Z,15.10
2023-02-06T10:25:24.206Z,16.00
2023-02-06T10:27:59.009Z,16.40
2023-02-06T10:30:48.623Z,16.80
2023-02-06T10:33:29.318Z,17.90
2023-02-06T10:36:08.831Z,16.30
2023-02-06T10:39:21.513Z,16.40
2023-02-06T10:42:03.209Z,16.20
2023-02-06T10:44:50.699Z,17.50
2023-02-06T10:47:34.136Z,17.10
2023-02-06T10:50:19.526Z,17.40
2023-02-06T10:52:49.533Z,17.00
2023-02-06T10:55:23.798Z,17.10
2023-02-06T10:58:10.477Z,17.10
2023-02-06T11:00:47.405Z,18.20
2023-02-06T11:03:21.435Z,17.70
2023-02-06T11:05:52.597Z,17.50
2023-02-06T11:08:28.658Z,17.90
2023-02-06T11:10:58.269Z,17.10
2023-02-06T11:13:35.377Z,16.90
2023-02-06T11:16:09.083Z,18.20
2023-02-06T11:18:44.845Z,17.40
2023-02-06T11:21:33.975Z,18.20
2023-02-06T11:24:13.142Z,17.60
2023-02-06T11:26:48.957Z,17.60
2023-02-06T11:29:21.984Z,17.60
2023-02-06T11:31:57.991Z,18.20
2023-02-06T11:34:34.454Z,18.30
2023-02-06T11:37:26.279Z,18.00
2023-02-06T11:40:18.389Z,17.70
2023-02-06T11:43:12.026Z,17.90
2023-02-06T11:45:44.949Z,17.60
2023-02-06T11:48:35.033Z,17.80
2023-02-06T11:51:06.689Z,18.40
2023-02-06T11:56:20.137Z,17.30
2023-02-06T11:59:06.862Z,17.20
2023-02-06T12:01:45.256Z,17.10
2023-02-06T12:04:23.054Z,17.60
2023-02-06T12:06:59.421Z,18.10
2023-02-06T12:09:32.153Z,18.70
2023-02-06T12:12:16.256Z,18.50
2023-02-06T12:14:55.080Z,18.90
2023-02-06T12:17:32.979Z,17.70
2023-02-06T12:20:12.059Z,17.70
2023-02-06T12:22:50.766Z,17.30
2023-02-06T12:25:33.926Z,18.10
2023-02-06T12:28:20.034Z,17.50
2023-02-06T12:30:58.924Z,17.60
2023-02-06T12:33:37.630Z,17.90
2023-02-06T12:36:16.254Z,17.70
2023-02-06T12:38:52.256Z,18.60
2023-02-06T12:41:52.251Z,17.70
2023-02-06T12:44:27.896Z,19.70
2023-02-06T12:47:02.677Z,18.90
2023-02-06T12:49:39.853Z,17.90
2023-02-06T12:52:21.015Z,17.80
2023-02-06T12:54:55.921Z,17.40
2023-02-06T12:57:30.543Z,18.00
2023-02-06T13:00:42.086Z,18.10
2023-02-06T13:03:32.351Z,17.80
2023-02-06T13:06:17.664Z,16.70
2023-02-06T13:08:55.805Z,17.60
2023-02-06T13:11:38.368Z,17.60
2023-02-06T13:14:18.390Z,18.10
2023-02-06T13:16:57.322Z,18.80
2023-02-06T13:19:31.935Z,19.30
2023-02-06T13:22:37.365Z,18.60
2023-02-06T13:25:55.748Z,19.60
2023-02-06T13:29:00.150Z,18.10
2023-02-06T13:31:38.171Z,18.10
2023-02-06T13:34:17.045Z,19.00
2023-02-06T13:36:52.427Z,17.70
2023-02-06T13:39:33.189Z,19.10
2023-02-06T13:42:35.060Z,19.90
2023-02-06T13:45:20.105Z,21.70
2023-02-06T13:48:46.532Z,19.90
2023-02-06T13:51:53.076Z,20.40
2023-02-06T13:55:03.344Z,21.80
2023-02-06T13:57:59.008Z,20.20
2023-02-06T14:00:32.156Z,20.40
2023-02-06T14:03:16.497Z,22.10
2023-02-06T14:06:07.884Z,21.40
2023-02-06T14:08:54.256Z,21.50
2023-02-06T14:12:02.403Z,21.30
2023-02-06T14:14:50.570Z,22.20
2023-02-06T14:17:38.505Z,21.40
2023-02-06T14:20:24.638Z,21.60
2023-02-06T14:23:10.731Z,22.00
2023-02-06T14:26:01.426Z,22.20
2023-02-06T14:28:46.642Z,23.40
2023-02-06T14:31:33.348Z,23.90
2023-02-06T14:34:23.515Z,22.10
2023-02-06T14:37:13.080Z,24.20
2023-02-06T14:39:49.667Z,22.90
2023-02-06T14:42:25.310Z,24.50
2023-02-06T14:45:02.288Z,23.10
2023-02-06T14:47:41.753Z,24.80
2023-02-06T14:50:24.440Z,25.50
2023-02-06T14:52:57.340Z,23.90
2023-02-06T14:55:36.710Z,26.00
2023-02-06T14:58:26.127Z,25.70
2023-02-06T15:01:12.721Z,26.70
2023-02-06T15:03:46.903Z,26.50
2023-02-06T15:06:31.999Z,25.50
2023-02-06T15:09:03.152Z,26.00
2023-02-06T15:11:34.669Z,26.40
2023-02-06T15:14:22.900Z,25.40
2023-02-06T15:16:56.500Z,30.00
2023-02-06T15:19:32.098Z,27.30
2023-02-06T15:22:05.599Z,27.50
2023-02-06T15:25:01.203Z,27.80
2023-02-06T15:27:33.683Z,28.20
2023-02-06T15:30:17.568Z,26.60
2023-02-06T15:32:51.798Z,27.80
2023-02-06T15:35:26.085Z,28.30
2023-02-06T15:37:57.615Z,29.30
2023-02-06T15:40:32.393Z,28.40
2023-02-06T15:43:12.445Z,29.30
2023-02-06T15:45:46.354Z,28.80
2023-02-06T15:51:03.231Z,30.30
2023-02-06T15:53:37.650Z,30.10
2023-02-06T15:56:23.495Z,31.00
2023-02-06T15:59:02.795Z,30.50
2023-02-06T16:01:37.204Z,30.70
2023-02-06T16:04:16.202Z,32.30
2023-02-06T16:07:00.080Z,31.60
2023-02-06T16:09:33.415Z,31.70
2023-02-06T16:12:07.362Z,29.80
2023-02-06T16:14:39.893Z,31.50
2023-02-06T16:17:28.795Z,31.50
2023-02-06T16:20:02.299Z,31.40
2023-02-06T16:22:37.168Z,33.20
2023-02-06T16:25:25.947Z,32.30
2023-02-06T16:27:59.695Z,33.20
2023-02-06T16:30:32.842Z,32.20
2023-02-06T16:33:22.495Z,33.00
2023-02-06T16:35:55.118Z,34.40
2023-02-06T16:38:24.750Z,31.10
2023-02-06T16:40:55.673Z,31.00
2023-02-06T16:43:27.588Z,30.50
2023-02-06T16:45:59.786Z,31.90
2023-02-06T16:48:29.730Z,32.00
2023-02-06T16:51:01.184Z,31.80
2023-02-06T16:53:34.589Z,31.50
2023-02-06T16:56:06.089Z,30.80
2023-02-06T16:58:38.962Z,32.10
2023-02-06T17:01:13.876Z,30.30
2023-02-06T17:03:46.049Z,33.40
2023-02-06T17:06:22.157Z,31.70
2023-02-06T17:08:53.249Z,33.30
2023-02-06T17:11:27.866Z,33.60
2023-02-06T17:13:59.718Z,32.50
2023-02-06T17:16:33.425Z,32.50
2023-02-06T17:19:03.864Z,33.10
2023-02-06T17:21:35.980Z,31.80
2023-02-06T17:24:07.702Z,32.30
2023-02-06T17:26:37.400Z,31.70
2023-02-06T17:29:07.081Z,34.50
2023-02-06T17:31:39.818Z,33.00
2023-02-06T17:34:09.762Z,34.30
2023-02-06T17:36:42.874Z,32.90
2023-02-06T17:39:14.175Z,33.40
2023-02-06T17:41:47.306Z,33.10
2023-02-06T17:44:19.756Z,33.10
2023-02-06T17:46:50.268Z,33.20
2023-02-06T17:49:19.982Z,34.80
2023-02-06T17:51:51.374Z,34.60
2023-02-06T17:54:21.415Z,32.80
2023-02-06T17:56:53.434Z,33.50
2023-02-06T17:59:25.387Z,35.60
2023-02-06T18:01:55.162Z,36.00
2023-02-06T18:04:25.393Z,34.20
2023-02-06T18:06:55.259Z,33.90
2023-02-06T18:09:24.872Z,33.30
2023-02-06T18:11:54.643Z,35.20
2023-02-06T18:14:27.165Z,34.70
2023-02-06T18:16:56.775Z,33.60
2023-02-06T18:19:29.110Z,33.30
2023-02-06T18:21:59.892Z,33.60
2023-02-06T18:24:31.906Z,33.30
2023-02-06T18:27:02.805Z,33.40
2023-02-06T18:29:48.920Z,34.10
2023-02-06T18:32:20.709Z,34.40
2023-02-06T18:34:53.588Z,33.90
2023-02-06T18:37:23.241Z,34.00
2023-02-06T18:39:54.979Z,33.60
2023-02-06T18:45:12.550Z,35.00
2023-02-06T18:47:43.327Z,33.40
2023-02-06T18:50:14.586Z,34.80
2023-02-06T18:52:46.855Z,33.90
2023-02-06T18:55:17.285Z,34.70
2023-02-06T18:57:49.743Z,33.70
2023-02-06T19:00:22.767Z,33.80
2023-02-06T19:02:52.677Z,33.50
2023-02-06T19:05:28.392Z,35.00
2023-02-06T19:08:02.955Z,34.10
2023-02-06T19:10:35.511Z,33.70
2023-02-06T19:13:05.717Z,35.50
2023-02-06T19:15:37.304Z,34.40
2023-02-06T19:18:08.363Z,34.30
2023-02-06T19:20:41.780Z,34.60
2023-02-06T19:23:11.887Z,33.40
2023-02-06T19:25:42.879Z,33.80
2023-02-06T19:28:12.464Z,34.10
2023-02-06T19:30:42.797Z,34.50
2023-02-06T19:33:14.829Z,34.30
2023-02-06T19:35:51.588Z,33.80
2023-02-06T19:38:24.760Z,32.60
2023-02-06T19:40:55.093Z,33.70
2023-02-06T19:43:25.005Z,34.10
2023-02-06T19:45:57.579Z,32.10
2023-02-06T19:48:28.329Z,33.70
2023-02-06T19:51:06.220Z,32.00
2023-02-06T19:53:36.702Z,32.10
2023-02-06T19:56:09.341Z,32.60
2023-02-06T19:58:41.046Z,32.90
2023-02-06T20:01:16.411Z,30.80
2023-02-06T20:03:49.150Z,32.80
2023-02-06T20:06:23.182Z,32.90
2023-02-06T20:08:53.299Z,32.50
2023-02-06T20:11:24.298Z,32.30
2023-02-06T20:13:55.175Z,30.80
2023-02-06T20:16:30.860Z,33.10
2023-02-06T20:19:07.104Z,32.30
2023-02-06T20:21:39.858Z,30.30
2023-02-06T20:24:12.572Z,32.30
2023-02-06T20:26:43.725Z,31.90
2023-02-06T20:29:21.892Z,30.00
2023-02-06T20:31:54.993Z,31.50
2023-02-06T20:34:25.446Z,31.10
2023-02-06T20:36:57.939Z,31.00
2023-02-06T20:39:32.873Z,32.80
2023-02-06T20:42:03.102Z,32.10
2023-02-06T20:44:35.516Z,31.10
2023-02-06T20:47:10.565Z,30.80
2023-02-06T20:49:42.568Z,30.40
2023-02-06T20:52:14.740Z,31.50
2023-02-06T20:54:44.473Z,30.30
2023-02-06T20:57:14.982Z,30.30
2023-02-06T20:59:44.757Z,31.20
2023-02-06T21:02:14.450Z,30.00
2023-02-06T21:04:44.089Z,30.30
2023-02-06T21:07:20.085Z,30.00
2023-02-06T21:09:56.200Z,30.10
2023-02-06T21:12:30.254Z,29.30
2023-02-06T21:15:00.282Z,30.00
2023-02-06T21:17:32.703Z,29.20
2023-02-06T21:20:02.551Z,29.50
2023-02-06T21:22:32.807Z,29.60
2023-02-06T21:25:06.769Z,29.80
2023-02-06T21:27:37.311Z,29.10
2023-02-06T21:30:11.588Z,28.80
2023-02-06T21:32:46.326Z,28.60
2023-02-06T21:35:21.742Z,29.70
2023-02-06T21:38:02.412Z,28.70
2023-02-06T21:40:37.500Z,29.20
2023-02-06T21:43:09.601Z,28.10
2023-02-06T21:45:45.191Z,29.90
2023-02-06T21:48:20.054Z,28.80
2023-02-06T21:50:54.465Z,29.40
2023-02-06T21:53:25.105Z,28.20
2023-02-06T21:56:00.520Z,29.50
2023-02-06T21:58:35.637Z,28.10
2023-02-06T22:01:09.018Z,28.50
2023-02-06T22:03:42.129Z,28.30
2023-02-06T22:06:14.814Z,28.10
2023-02-06T22:08:47.750Z,29.20
2023-02-06T22:11:22.685Z,28.70
2023-02-06T22:14:00.172Z,28.20
2023-02-06T22:16:32.939Z,28.20
2023-02-06T22:19:02.592Z,28.50
2023-02-06T22:21:38.431Z,28.30
2023-02-06T22:24:10.799Z,27.70
2023-02-06T22:26:40.860Z,29.10
2023-02-06T22:29:14.563Z,28.20
2023-02-06T22:31:45.563Z,29.30
2023-02-06T22:34:19.477Z,27.70
2023-02-06T22:36:50.328Z,29.40
2023-02-06T22:39:22.184Z,31.00
2023-02-06T22:44:27.097Z,30.00
2023-02-06T22:46:56.536Z,29.00
2023-02-06T22:49:25.821Z,28.90
2023-02-06T22:51:57.308Z,29.50
2023-02-06T22:54:26.803Z,28.20
2023-02-06T22:56:56.217Z,27.90
2023-02-06T22:59:29.041Z,29.80
2023-02-06T23:01:59.508Z,29.30
2023-02-06T23:04:33.954Z,29.00
2023-02-06T23:07:04.326Z,29.70
2023-02-06T23:09:36.949Z,29.40
2023-02-06T23:12:09.032Z,28.40
2023-02-06T23:14:38.253Z,29.80
2023-02-06T23:17:07.735Z,29.90
2023-02-06T23:19:37.106Z,30.60
2023-02-06T23:24:39.643Z,29.20
2023-02-06T23:27:09.210Z,30.20
2023-02-06T23:29:38.548Z,29.00
2023-02-06T23:32:08.134Z,29.40
2023-02-06T23:34:39.206Z,29.70
2023-02-06T23:37:09.614Z,29.70
2023-02-06T23:39:39.288Z,29.00
2023-02-06T23:42:11.116Z,28.90
2023-02-06T23:44:43.522Z,30.20
2023-02-06T23:47:12.784Z,30.60
2023-02-06T23:49:42.034Z,29.20
2023-02-06T23:52:11.310Z,29.10
2023-02-06T23:54:41.118Z,28.30
2023-02-06T23:57:10.657Z,29.70
2023-02-06T23:59:39.862Z,28.60
